createdAt,value
2022-10-16T00:02:00.109Z,101144.44
2022-10-16T00:07:03.176Z,101162.53
2022-10-16T00:12:08.047Z,101171.47
2022-10-16T00:17:10.300Z,101155.56
2022-10-16T00:22:12.521Z,101160.75
2022-10-16T00:27:14.710Z,101164.72
2022-10-16T00:32:16.950Z,101162.03
2022-10-16T00:37:19.154Z,101163.34
2022-10-16T00:42:21.407Z,101149.97
2022-10-16T00:47:33.720Z,101156.34
2022-10-16T00:52:36.615Z,101165.25
2022-10-16T00:57:40.510Z,101153.75
2022-10-16T01:02:42.935Z,101161.81
2022-10-16T01:08:09.526Z,101165.69
2022-10-16T01:13:17.413Z,101147.94
2022-10-16T01:18:30.909Z,101142.09
2022-10-16T01:24:02.133Z,101158.69
2022-10-16T01:29:29.696Z,101164.94
2022-10-16T01:34:48.041Z,101154.69
2022-10-16T01:39:52.463Z,101155.72
2022-10-16T01:44:56.553Z,101141.69
2022-10-16T01:50:01.750Z,101146.41
2022-10-16T01:55:07.821Z,101159.03
2022-10-16T02:00:14.501Z,101166.25
2022-10-16T02:05:20.523Z,101165.25
2022-10-16T02:10:23.386Z,101138.84
2022-10-16T02:15:25.659Z,101164.31
2022-10-16T02:20:33.694Z,101161.13
2022-10-16T02:25:43.460Z,101165.97
2022-10-16T02:30:52.174Z,101172.19
2022-10-16T02:35:55.943Z,101184.97
2022-10-16T02:40:58.412Z,101185.78
2022-10-16T02:46:00.909Z,101209.38
2022-10-16T02:51:03.204Z,101206.88
2022-10-16T02:56:05.678Z,101195.72
2022-10-16T03:01:08.425Z,101206.00
2022-10-16T03:06:10.738Z,101214.25
2022-10-16T03:11:12.929Z,101214.75
2022-10-16T03:16:15.276Z,101220.00
2022-10-16T03:21:18.218Z,101231.22
2022-10-16T03:26:20.438Z,101215.66
2022-10-16T03:31:23.240Z,101239.81
2022-10-16T03:36:25.610Z,101252.19
2022-10-16T03:41:27.803Z,101248.34
2022-10-16T03:46:30.880Z,101259.94
2022-10-16T03:51:33.185Z,101259.09
2022-10-16T03:56:35.491Z,101248.94
2022-10-16T04:01:37.810Z,101238.88
2022-10-16T04:06:40.152Z,101244.19
2022-10-16T04:11:42.390Z,101260.59
2022-10-16T04:16:44.631Z,101252.84
2022-10-16T04:21:47.376Z,101233.03
2022-10-16T04:26:49.650Z,101243.94
2022-10-16T04:31:52.010Z,101254.69
2022-10-16T04:36:54.312Z,101266.75
2022-10-16T04:41:56.901Z,101243.66
2022-10-16T04:46:59.319Z,101255.91
2022-10-16T04:52:01.693Z,101266.44
2022-10-16T04:57:04.021Z,101254.72
2022-10-16T05:02:06.373Z,101270.59
2022-10-16T05:07:08.713Z,101284.00
2022-10-16T05:12:11.002Z,101290.38
2022-10-16T05:17:13.578Z,101294.06
2022-10-16T05:22:16.040Z,101305.09
2022-10-16T05:27:21.495Z,101297.91
2022-10-16T05:32:23.853Z,101304.91
2022-10-16T05:37:26.298Z,101308.78
2022-10-16T05:42:29.149Z,101324.16
2022-10-16T05:47:31.802Z,101345.31
2022-10-16T05:52:34.218Z,101346.47
2022-10-16T05:57:36.632Z,101362.69
2022-10-16T06:02:39.456Z,101365.31
2022-10-16T06:07:41.954Z,101356.41
2022-10-16T06:12:44.730Z,101352.13
2022-10-16T06:17:47.060Z,101389.31
2022-10-16T06:22:49.446Z,101385.97
2022-10-16T06:27:51.705Z,101391.31
2022-10-16T06:38:01.537Z,101388.50
2022-10-16T06:43:04.006Z,101372.78
2022-10-16T06:48:06.229Z,101373.91
2022-10-16T06:53:08.465Z,101409.50
2022-10-16T06:58:10.847Z,101391.56
2022-10-16T07:03:13.694Z,101409.41
2022-10-16T07:08:15.900Z,101412.66
2022-10-16T07:13:18.178Z,101413.91
2022-10-16T07:18:20.633Z,101408.69
2022-10-16T07:23:23.173Z,101401.91
2022-10-16T07:28:25.585Z,101396.81
2022-10-16T07:33:28.006Z,101408.09
2022-10-16T07:38:30.378Z,101417.06
2022-10-16T07:43:32.879Z,101401.44
2022-10-16T07:48:37.126Z,101420.81
2022-10-16T07:53:39.557Z,101428.28
2022-10-16T07:58:42.335Z,101434.19
2022-10-16T08:03:52.400Z,101431.22
2022-10-16T08:08:54.680Z,101428.56
2022-10-16T08:13:56.966Z,101428.38
2022-10-16T08:18:59.312Z,101441.44
2022-10-16T08:24:02.113Z,101430.22
2022-10-16T08:29:04.465Z,101411.53
2022-10-16T08:34:07.055Z,101433.13
2022-10-16T08:39:09.390Z,101444.06
2022-10-16T08:44:43.263Z,101424.75
2022-10-16T08:50:02.168Z,101426.88
2022-10-16T08:55:05.894Z,101435.91
2022-10-16T09:00:15.137Z,101437.38
2022-10-16T09:05:35.660Z,101433.28
2022-10-16T09:10:59.385Z,101431.19
2022-10-16T09:16:23.230Z,101442.91
2022-10-16T09:21:30.392Z,101433.72
2022-10-16T09:26:35.308Z,101432.50
2022-10-16T09:31:38.909Z,101436.22
2022-10-16T09:36:45.611Z,101418.88
2022-10-16T09:41:48.186Z,101406.38
2022-10-16T09:46:50.564Z,101413.84
2022-10-16T09:52:04.974Z,101418.63
2022-10-16T09:57:09.182Z,101426.78
2022-10-16T10:02:16.305Z,101422.16
2022-10-16T10:07:22.645Z,101418.63
2022-10-16T10:12:30.369Z,101397.00
2022-10-16T10:17:32.870Z,101411.13
2022-10-16T10:22:45.815Z,101401.34
2022-10-16T10:28:00.278Z,101396.03
2022-10-16T10:33:30.061Z,101392.94
2022-10-16T10:39:05.160Z,101383.59
2022-10-16T10:44:10.284Z,101391.44
2022-10-16T10:49:49.545Z,101374.47
2022-10-16T10:55:13.014Z,101350.22
2022-10-16T11:00:37.216Z,101374.88
2022-10-16T11:05:45.910Z,101353.56
2022-10-16T11:10:51.137Z,101362.91
2022-10-16T11:15:58.725Z,101343.81
2022-10-16T11:21:12.013Z,101347.38
2022-10-16T11:26:22.711Z,101359.84
2022-10-16T11:31:28.253Z,101349.72
2022-10-16T11:36:43.938Z,101345.63
2022-10-16T11:41:55.653Z,101342.53
2022-10-16T11:47:54.038Z,101303.44
2022-10-16T11:52:46.080Z,101338.38
2022-10-16T11:58:27.806Z,101331.56
2022-10-16T12:03:50.762Z,101300.41
2022-10-16T12:08:55.625Z,101317.25
2022-10-16T12:14:12.361Z,101320.31
2022-10-16T12:19:17.723Z,101313.44
2022-10-16T12:24:39.995Z,101325.25
2022-10-16T12:29:46.206Z,101333.72
2022-10-16T12:34:49.490Z,101313.91
2022-10-16T12:39:55.076Z,101328.06
2022-10-16T12:44:57.743Z,101321.03
2022-10-16T12:50:04.176Z,101324.38
2022-10-16T12:55:18.881Z,101332.53
2022-10-16T13:00:54.897Z,101344.41
2022-10-16T13:06:23.011Z,101328.22
2022-10-16T13:12:03.593Z,101334.75
2022-10-16T13:17:18.911Z,101325.53
2022-10-16T13:22:23.947Z,101340.50
2022-10-16T13:27:29.405Z,101341.47
2022-10-16T13:32:32.534Z,101338.25
2022-10-16T13:37:34.926Z,101340.00
2022-10-16T13:42:37.228Z,101341.84
2022-10-16T13:47:39.491Z,101330.13
2022-10-16T13:52:42.699Z,101337.19
2022-10-16T13:57:45.867Z,101325.13
2022-10-16T14:02:53.795Z,101352.41
2022-10-16T14:07:58.053Z,101310.16
2022-10-16T14:13:03.957Z,101335.31
2022-10-16T14:18:06.482Z,101348.84
2022-10-16T14:23:23.940Z,101364.94
2022-10-16T14:28:26.384Z,101343.50
2022-10-16T14:33:31.567Z,101368.41
2022-10-16T14:38:35.110Z,101374.19
2022-10-16T14:43:42.982Z,101366.13
2022-10-16T14:48:49.519Z,101375.84
2022-10-16T14:53:57.708Z,101380.72
2022-10-16T14:59:02.801Z,101378.56
2022-10-16T15:04:05.577Z,101384.53
2022-10-16T15:09:08.233Z,101356.31
2022-10-16T15:19:17.427Z,101323.53
2022-10-16T15:24:21.579Z,101402.75
2022-10-16T15:29:24.188Z,101392.44
2022-10-16T15:34:26.356Z,101410.22
2022-10-16T15:39:28.982Z,101387.59
2022-10-16T15:44:31.659Z,101418.41
2022-10-16T15:49:34.103Z,101394.84
2022-10-16T15:54:36.379Z,101425.19
2022-10-16T15:59:38.914Z,101433.69
2022-10-16T16:04:44.915Z,101446.25
2022-10-16T16:09:47.481Z,101450.25
2022-10-16T16:14:50.605Z,101436.56
2022-10-16T16:19:53.060Z,101447.06
2022-10-16T16:24:55.730Z,101465.63
2022-10-16T16:29:57.979Z,101450.22
2022-10-16T16:35:00.306Z,101462.94
2022-10-16T16:40:02.685Z,101477.56
2022-10-16T16:45:05.147Z,101477.75
2022-10-16T16:50:08.411Z,101483.38
2022-10-16T16:55:11.342Z,101501.50
2022-10-16T17:00:14.501Z,101507.50
2022-10-16T17:05:17.153Z,101510.19
2022-10-16T17:10:19.813Z,101483.66
2022-10-16T17:15:22.045Z,101497.59
2022-10-16T17:20:24.412Z,101514.91
2022-10-16T17:25:28.446Z,101508.78
2022-10-16T17:30:31.775Z,101509.59
2022-10-16T17:35:46.186Z,101515.22
2022-10-16T17:40:48.580Z,101524.53
2022-10-16T17:45:50.851Z,101549.72
2022-10-16T17:50:53.459Z,101557.44
2022-10-16T17:55:59.915Z,101567.75
2022-10-16T18:01:03.066Z,101567.75
2022-10-16T18:06:05.461Z,101583.53
2022-10-16T18:11:07.687Z,101560.63
2022-10-16T18:16:12.991Z,101591.53
2022-10-16T18:21:17.462Z,101565.56
2022-10-16T18:26:21.613Z,101602.25
2022-10-16T18:31:26.723Z,101597.53
2022-10-16T18:36:35.670Z,101604.31
2022-10-16T18:41:40.601Z,101623.13
2022-10-16T18:46:43.218Z,101612.72
2022-10-16T18:51:47.978Z,101618.94
2022-10-16T18:56:53.447Z,101643.69
2022-10-16T19:01:55.768Z,101654.63
2022-10-16T19:06:58.255Z,101643.63
2022-10-16T19:12:00.781Z,101656.63
2022-10-16T19:17:03.082Z,101646.88
2022-10-16T19:22:23.957Z,101653.00
2022-10-16T19:27:26.213Z,101675.47
2022-10-16T19:32:28.956Z,101678.06
2022-10-16T19:37:31.912Z,101670.03
2022-10-16T19:42:34.646Z,101685.03
2022-10-16T19:47:37.526Z,101665.31
2022-10-16T19:52:40.028Z,101709.69
2022-10-16T19:57:42.319Z,101710.56
2022-10-16T20:02:44.803Z,101716.03
2022-10-16T20:07:46.985Z,101709.38
2022-10-16T20:12:49.331Z,101706.84
2022-10-16T20:17:51.694Z,101735.50
2022-10-16T20:22:53.990Z,101728.56
2022-10-16T20:27:56.362Z,101746.03
2022-10-16T20:32:58.586Z,101717.47
2022-10-16T20:38:01.020Z,101744.53
2022-10-16T20:43:03.859Z,101751.50
2022-10-16T20:48:06.442Z,101756.53
2022-10-16T20:53:09.543Z,101756.00
2022-10-16T20:58:13.123Z,101764.13
2022-10-16T21:03:15.350Z,101745.56
2022-10-16T21:08:17.930Z,101760.13
2022-10-16T21:13:20.157Z,101737.75
2022-10-16T21:18:22.356Z,101766.38
2022-10-16T21:23:24.651Z,101746.38
2022-10-16T21:28:27.140Z,101747.72
2022-10-16T21:33:29.596Z,101771.97
2022-10-16T21:38:32.231Z,101734.84
2022-10-16T21:43:34.745Z,101757.53
2022-10-16T21:48:37.880Z,101779.38
2022-10-16T21:53:40.786Z,101770.34
2022-10-16T21:58:44.218Z,101794.63
2022-10-16T22:03:47.925Z,101780.69
2022-10-16T22:08:53.161Z,101783.91
2022-10-16T22:13:56.833Z,101805.81
2022-10-16T22:19:00.317Z,101805.81
2022-10-16T22:24:02.747Z,101822.28
2022-10-16T22:29:06.378Z,101827.84
2022-10-16T22:34:10.871Z,101809.50
2022-10-16T22:39:13.074Z,101816.75
2022-10-16T22:44:15.298Z,101783.94
2022-10-16T22:49:18.987Z,101818.06
2022-10-16T22:54:21.210Z,101790.63
2022-10-16T22:59:23.637Z,101824.47
2022-10-16T23:04:26.045Z,101827.81
2022-10-16T23:09:28.278Z,101817.03
2022-10-16T23:14:30.554Z,101829.13
2022-10-16T23:19:32.897Z,101827.63
2022-10-16T23:24:35.641Z,101832.69
2022-10-16T23:29:38.052Z,101833.38
2022-10-16T23:34:40.339Z,101827.34
2022-10-16T23:39:42.526Z,101830.88
2022-10-16T23:44:44.735Z,101821.94
2022-10-16T23:49:46.990Z,101815.22
2022-10-16T23:54:49.594Z,101835.09
2022-10-16T23:59:51.833Z,101846.19
